sensor_id;sensor_type;location;lat;lon;timestamp;temperature;humidity
29917;DHT22;16786;49.466;11.068;2023-02-28T00:00:01;-2.30;99.90
29917;DHT22;16786;49.466;11.068;2023-02-28T00:02:40;-2.30;99.90
29917;DHT22;16786;49.466;11.068;2023-02-28T00:05:09;-2.20;99.90
29917;DHT22;16786;49.466;11.068;2023-02-28T00:07:37;-2.30;99.90
29917;DHT22;16786;49.466;11.068;2023-02-28T00:10:07;-2.20;99.90
29917;DHT22;16786;49.466;11.068;2023-02-28T00:12:35;-2.30;99.90
29917;DHT22;16786;49.466;11.068;2023-02-28T00:15:10;-2.20;99.90
29917;DHT22;16786;49.466;11.068;2023-02-28T00:17:38;-2.20;99.90
29917;DHT22;16786;49.466;11.068;2023-02-28T00:20:07;-2.20;99.90
29917;DHT22;16786;49.466;11.068;2023-02-28T00:22:43;-2.20;99.90
29917;DHT22;16786;49.466;11.068;2023-02-28T00:25:12;-2.20;99.90
29917;DHT22;16786;49.466;11.068;2023-02-28T00:27:40;-2.20;99.90
29917;DHT22;16786;49.466;11.068;2023-02-28T00:30:12;-2.20;99.90
29917;DHT22;16786;49.466;11.068;2023-02-28T00:32:40;-2.20;99.90
29917;DHT22;16786;49.466;11.068;2023-02-28T00:35:09;-2.20;99.90
29917;DHT22;16786;49.466;11.068;2023-02-28T00:37:37;-2.10;99.90
29917;DHT22;16786;49.466;11.068;2023-02-28T00:40:05;-2.20;99.90
29917;DHT22;16786;49.466;11.068;2023-02-28T00:42:34;-2.20;99.90
29917;DHT22;16786;49.466;11.068;2023-02-28T00:45:03;-2.20;99.90
29917;DHT22;16786;49.466;11.068;2023-02-28T00:47:37;-2.20;99.90
29917;DHT22;16786;49.466;11.068;2023-02-28T00:50:05;-2.20;99.90
29917;DHT22;16786;49.466;11.068;2023-02-28T00:52:35;-2.20;99.90
29917;DHT22;16786;49.466;11.068;2023-02-28T00:55:03;-2.20;99.90
29917;DHT22;16786;49.466;11.068;2023-02-28T00:57:32;-2.20;99.90
29917;DHT22;16786;49.466;11.068;2023-02-28T00:59:59;-2.20;99.90
29917;DHT22;16786;49.466;11.068;2023-02-28T01:02:26;-2.20;99.90
29917;DHT22;16786;49.466;11.068;2023-02-28T01:04:54;-2.20;99.90
29917;DHT22;16786;49.466;11.068;2023-02-28T01:07:21;-2.20;99.90
29917;DHT22;16786;49.466;11.068;2023-02-28T01:09:48;-2.20;99.90
29917;DHT22;16786;49.466;11.068;2023-02-28T01:12:17;-2.20;99.90
29917;DHT22;16786;49.466;11.068;2023-02-28T01:14:46;-2.20;99.90
29917;DHT22;16786;49.466;11.068;2023-02-28T01:17:13;-2.20;99.90
29917;DHT22;16786;49.466;11.068;2023-02-28T01:19:40;-2.20;99.90
29917;DHT22;16786;49.466;11.068;2023-02-28T01:22:09;-2.20;99.90
29917;DHT22;16786;49.466;11.068;2023-02-28T01:24:37;-2.20;99.90
29917;DHT22;16786;49.466;11.068;2023-02-28T01:27:04;-2.20;99.90
29917;DHT22;16786;49.466;11.068;2023-02-28T01:29:31;-2.10;99.90
29917;DHT22;16786;49.466;11.068;2023-02-28T01:31:59;-2.20;99.90
29917;DHT22;16786;49.466;11.068;2023-02-28T01:34:26;-2.20;99.90
29917;DHT22;16786;49.466;11.068;2023-02-28T01:36:53;-2.20;99.90
29917;DHT22;16786;49.466;11.068;2023-02-28T01:39:21;-2.20;99.90
29917;DHT22;16786;49.466;11.068;2023-02-28T01:41:49;-2.20;99.90
29917;DHT22;16786;49.466;11.068;2023-02-28T01:47:23;-2.20;99.90
29917;DHT22;16786;49.466;11.068;2023-02-28T01:49:51;-2.20;99.90
29917;DHT22;16786;49.466;11.068;2023-02-28T01:52:19;-2.20;99.90
29917;DHT22;16786;49.466;11.068;2023-02-28T01:54:52;-2.20;99.90
29917;DHT22;16786;49.466;11.068;2023-02-28T01:57:24;-2.20;99.90
29917;DHT22;16786;49.466;11.068;2023-02-28T01:59:58;-2.20;99.90
29917;DHT22;16786;49.466;11.068;2023-02-28T02:02:28;-2.20;99.90
29917;DHT22;16786;49.466;11.068;2023-02-28T02:05:08;-2.20;99.90
29917;DHT22;16786;49.466;11.068;2023-02-28T02:07:38;-2.20;99.90
29917;DHT22;16786;49.466;11.068;2023-02-28T02:10:12;-2.20;99.90
29917;DHT22;16786;49.466;11.068;2023-02-28T02:15:40;-2.20;99.90
29917;DHT22;16786;49.466;11.068;2023-02-28T02:18:30;-2.20;99.90
29917;DHT22;16786;49.466;11.068;2023-02-28T02:33:11;-2.40;99.90
29917;DHT22;16786;49.466;11.068;2023-02-28T02:35:59;-2.30;99.90
29917;DHT22;16786;49.466;11.068;2023-02-28T02:43:51;-2.30;99.90
29917;DHT22;16786;49.466;11.068;2023-02-28T02:46:37;-2.30;99.90
29917;DHT22;16786;49.466;11.068;2023-02-28T02:49:15;-2.40;99.90
29917;DHT22;16786;49.466;11.068;2023-02-28T02:51:44;-2.40;99.90
29917;DHT22;16786;49.466;11.068;2023-02-28T02:54:21;-2.40;99.90
29917;DHT22;16786;49.466;11.068;2023-02-28T02:56:50;-2.40;99.90
29917;DHT22;16786;49.466;11.068;2023-02-28T02:59:21;-2.50;99.90
29917;DHT22;16786;49.466;11.068;2023-02-28T03:01:54;-2.40;99.90
29917;DHT22;16786;49.466;11.068;2023-02-28T03:04:25;-2.50;99.90
29917;DHT22;16786;49.466;11.068;2023-02-28T03:06:53;-2.40;99.90
29917;DHT22;16786;49.466;11.068;2023-02-28T03:09:22;-2.50;99.90
29917;DHT22;16786;49.466;11.068;2023-02-28T03:11:52;-2.50;99.90
29917;DHT22;16786;49.466;11.068;2023-02-28T03:20:40;-2.40;99.90
29917;DHT22;16786;49.466;11.068;2023-02-28T03:23:23;-2.40;99.90
29917;DHT22;16786;49.466;11.068;2023-02-28T03:26:06;-2.40;99.90
29917;DHT22;16786;49.466;11.068;2023-02-28T03:28:41;-2.40;99.90
29917;DHT22;16786;49.466;11.068;2023-02-28T03:34:03;-2.50;99.90
29917;DHT22;16786;49.466;11.068;2023-02-28T03:36:37;-2.50;99.90
29917;DHT22;16786;49.466;11.068;2023-02-28T03:39:27;-2.50;99.90
29917;DHT22;16786;49.466;11.068;2023-02-28T03:41:59;-2.50;99.90
29917;DHT22;16786;49.466;11.068;2023-02-28T03:44:29;-2.60;99.90
29917;DHT22;16786;49.466;11.068;2023-02-28T03:47:16;-2.60;99.90
29917;DHT22;16786;49.466;11.068;2023-02-28T03:50:05;-2.60;99.90
29917;DHT22;16786;49.466;11.068;2023-02-28T03:52:39;-2.60;99.90
29917;DHT22;16786;49.466;11.068;2023-02-28T03:55:11;-2.60;99.90
29917;DHT22;16786;49.466;11.068;2023-02-28T03:58:01;-2.60;99.90
29917;DHT22;16786;49.466;11.068;2023-02-28T04:00:37;-2.60;99.90
29917;DHT22;16786;49.466;11.068;2023-02-28T04:03:05;-2.60;99.90
29917;DHT22;16786;49.466;11.068;2023-02-28T04:05:33;-2.60;99.90
29917;DHT22;16786;49.466;11.068;2023-02-28T04:08:11;-2.60;99.90
29917;DHT22;16786;49.466;11.068;2023-02-28T04:10:39;-2.60;99.90
29917;DHT22;16786;49.466;11.068;2023-02-28T04:13:06;-2.50;99.90
29917;DHT22;16786;49.466;11.068;2023-02-28T04:15:33;-2.50;99.90
29917;DHT22;16786;49.466;11.068;2023-02-28T04:18:01;-2.60;99.90
29917;DHT22;16786;49.466;11.068;2023-02-28T04:20:28;-2.60;99.90
29917;DHT22;16786;49.466;11.068;2023-02-28T04:22:55;-2.60;99.90
29917;DHT22;16786;49.466;11.068;2023-02-28T04:25:22;-2.60;99.90
29917;DHT22;16786;49.466;11.068;2023-02-28T04:27:49;-2.60;99.90
29917;DHT22;16786;49.466;11.068;2023-02-28T04:30:17;-2.50;99.90
29917;DHT22;16786;49.466;11.068;2023-02-28T04:32:44;-2.50;99.90
29917;DHT22;16786;49.466;11.068;2023-02-28T04:35:11;-2.50;99.90
29917;DHT22;16786;49.466;11.068;2023-02-28T04:37:39;-2.50;99.90
29917;DHT22;16786;49.466;11.068;2023-02-28T04:40:06;-2.50;99.90
29917;DHT22;16786;49.466;11.068;2023-02-28T04:42:34;-2.50;99.90
29917;DHT22;16786;49.466;11.068;2023-02-28T04:45:04;-2.50;99.90
29917;DHT22;16786;49.466;11.068;2023-02-28T04:47:31;-2.50;99.90
29917;DHT22;16786;49.466;11.068;2023-02-28T04:49:58;-2.50;99.90
29917;DHT22;16786;49.466;11.068;2023-02-28T04:52:27;-2.40;99.90
29917;DHT22;16786;49.466;11.068;2023-02-28T04:54:54;-2.40;99.90
29917;DHT22;16786;49.466;11.068;2023-02-28T04:57:21;-2.40;99.90
29917;DHT22;16786;49.466;11.068;2023-02-28T04:59:49;-2.40;99.90
29917;DHT22;16786;49.466;11.068;2023-02-28T05:02:17;-2.40;99.90
29917;DHT22;16786;49.466;11.068;2023-02-28T05:04:44;-2.40;99.90
29917;DHT22;16786;49.466;11.068;2023-02-28T05:07:11;-2.40;99.90
29917;DHT22;16786;49.466;11.068;2023-02-28T05:09:38;-2.30;99.90
29917;DHT22;16786;49.466;11.068;2023-02-28T05:12:06;-2.30;99.90
29917;DHT22;16786;49.466;11.068;2023-02-28T05:14:33;-2.20;99.90
29917;DHT22;16786;49.466;11.068;2023-02-28T05:17:00;-2.30;99.90
29917;DHT22;16786;49.466;11.068;2023-02-28T05:19:28;-2.30;99.90
29917;DHT22;16786;49.466;11.068;2023-02-28T05:21:55;-2.20;99.90
29917;DHT22;16786;49.466;11.068;2023-02-28T05:24:23;-2.20;99.90
29917;DHT22;16786;49.466;11.068;2023-02-28T05:26:52;-2.20;99.90
29917;DHT22;16786;49.466;11.068;2023-02-28T05:29:20;-2.30;99.90
29917;DHT22;16786;49.466;11.068;2023-02-28T05:31:48;-2.30;99.90
29917;DHT22;16786;49.466;11.068;2023-02-28T05:34:15;-2.30;99.90
29917;DHT22;16786;49.466;11.068;2023-02-28T05:36:43;-2.30;99.90
29917;DHT22;16786;49.466;11.068;2023-02-28T05:39:11;-2.30;99.90
29917;DHT22;16786;49.466;11.068;2023-02-28T05:41:41;-2.30;99.90
29917;DHT22;16786;49.466;11.068;2023-02-28T05:44:09;-2.30;99.90
29917;DHT22;16786;49.466;11.068;2023-02-28T05:46:37;-2.20;99.90
29917;DHT22;16786;49.466;11.068;2023-02-28T05:49:05;-2.30;99.90
29917;DHT22;16786;49.466;11.068;2023-02-28T05:51:33;-2.30;99.90
29917;DHT22;16786;49.466;11.068;2023-02-28T05:54:03;-2.30;99.90
29917;DHT22;16786;49.466;11.068;2023-02-28T05:56:31;-2.30;99.90
29917;DHT22;16786;49.466;11.068;2023-02-28T05:58:58;-2.30;99.90
29917;DHT22;16786;49.466;11.068;2023-02-28T06:01:43;-2.30;99.90
29917;DHT22;16786;49.466;11.068;2023-02-28T06:04:19;-2.20;99.90
29917;DHT22;16786;49.466;11.068;2023-02-28T06:06:58;-2.20;99.90
29917;DHT22;16786;49.466;11.068;2023-02-28T06:09:25;-2.20;99.90
29917;DHT22;16786;49.466;11.068;2023-02-28T06:11:52;-2.10;99.90
29917;DHT22;16786;49.466;11.068;2023-02-28T06:14:21;-2.10;99.90
29917;DHT22;16786;49.466;11.068;2023-02-28T06:16:48;-2.20;99.90
29917;DHT22;16786;49.466;11.068;2023-02-28T06:19:16;-2.20;99.90
29917;DHT22;16786;49.466;11.068;2023-02-28T06:21:43;-2.20;99.90
29917;DHT22;16786;49.466;11.068;2023-02-28T06:24:11;-2.10;99.90
29917;DHT22;16786;49.466;11.068;2023-02-28T06:26:38;-2.00;99.90
29917;DHT22;16786;49.466;11.068;2023-02-28T06:29:05;-2.00;99.90
29917;DHT22;16786;49.466;11.068;2023-02-28T06:31:32;-1.90;99.90
29917;DHT22;16786;49.466;11.068;2023-02-28T06:34:00;-1.90;99.90
29917;DHT22;16786;49.466;11.068;2023-02-28T06:36:28;-1.80;99.90
29917;DHT22;16786;49.466;11.068;2023-02-28T06:38:55;-1.70;99.90
29917;DHT22;16786;49.466;11.068;2023-02-28T06:41:25;-1.70;99.90
29917;DHT22;16786;49.466;11.068;2023-02-28T06:43:53;-1.60;99.90
29917;DHT22;16786;49.466;11.068;2023-02-28T06:46:21;-1.60;99.90
29917;DHT22;16786;49.466;11.068;2023-02-28T06:48:48;-1.50;99.90
29917;DHT22;16786;49.466;11.068;2023-02-28T06:51:18;-1.50;99.90
29917;DHT22;16786;49.466;11.068;2023-02-28T06:53:47;-1.40;99.90
29917;DHT22;16786;49.466;11.068;2023-02-28T06:56:16;-1.40;99.90
29917;DHT22;16786;49.466;11.068;2023-02-28T06:58:50;-1.30;99.90
29917;DHT22;16786;49.466;11.068;2023-02-28T07:01:19;-1.20;99.90
29917;DHT22;16786;49.466;11.068;2023-02-28T07:03:47;-1.20;99.90
29917;DHT22;16786;49.466;11.068;2023-02-28T07:06:23;-1.10;99.90
29917;DHT22;16786;49.466;11.068;2023-02-28T07:08:52;-1.00;99.90
29917;DHT22;16786;49.466;11.068;2023-02-28T07:11:21;-0.90;99.90
29917;DHT22;16786;49.466;11.068;2023-02-28T07:13:50;-0.90;99.90
29917;DHT22;16786;49.466;11.068;2023-02-28T07:16:18;-0.80;99.90
29917;DHT22;16786;49.466;11.068;2023-02-28T07:18:45;-0.70;99.90
29917;DHT22;16786;49.466;11.068;2023-02-28T07:21:13;-0.70;99.90
29917;DHT22;16786;49.466;11.068;2023-02-28T07:23:40;-0.50;99.90
29917;DHT22;16786;49.466;11.068;2023-02-28T07:26:14;-0.50;99.90
29917;DHT22;16786;49.466;11.068;2023-02-28T07:28:42;-0.40;99.90
29917;DHT22;16786;49.466;11.068;2023-02-28T07:31:11;-0.30;99.90
29917;DHT22;16786;49.466;11.068;2023-02-28T07:33:38;-0.30;99.90
29917;DHT22;16786;49.466;11.068;2023-02-28T07:36:14;-0.20;99.90
29917;DHT22;16786;49.466;11.068;2023-02-28T07:38:43;-0.10;99.90
29917;DHT22;16786;49.466;11.068;2023-02-28T07:41:15;-0.10;99.90
29917;DHT22;16786;49.466;11.068;2023-02-28T07:43:42;0.00;99.90
29917;DHT22;16786;49.466;11.068;2023-02-28T07:46:13;0.00;99.90
29917;DHT22;16786;49.466;11.068;2023-02-28T07:48:43;0.10;99.90
29917;DHT22;16786;49.466;11.068;2023-02-28T07:51:10;0.30;99.90
29917;DHT22;16786;49.466;11.068;2023-02-28T07:53:38;0.40;99.90
29917;DHT22;16786;49.466;11.068;2023-02-28T07:56:05;0.50;99.90
29917;DHT22;16786;49.466;11.068;2023-02-28T07:58:33;0.60;99.90
29917;DHT22;16786;49.466;11.068;2023-02-28T08:01:08;0.70;99.90
29917;DHT22;16786;49.466;11.068;2023-02-28T08:03:36;0.70;99.90
29917;DHT22;16786;49.466;11.068;2023-02-28T08:06:04;0.80;99.90
29917;DHT22;16786;49.466;11.068;2023-02-28T08:08:32;0.90;99.90
29917;DHT22;16786;49.466;11.068;2023-02-28T08:11:01;1.10;99.90
29917;DHT22;16786;49.466;11.068;2023-02-28T08:13:29;1.10;99.90
29917;DHT22;16786;49.466;11.068;2023-02-28T08:15:57;1.10;99.90
29917;DHT22;16786;49.466;11.068;2023-02-28T08:18:24;1.10;99.90
29917;DHT22;16786;49.466;11.068;2023-02-28T08:20:52;1.20;99.90
29917;DHT22;16786;49.466;11.068;2023-02-28T08:23:19;1.30;99.90
29917;DHT22;16786;49.466;11.068;2023-02-28T08:25:53;1.30;99.90
29917;DHT22;16786;49.466;11.068;2023-02-28T08:28:22;1.40;99.90
29917;DHT22;16786;49.466;11.068;2023-02-28T08:30:53;1.50;99.90
29917;DHT22;16786;49.466;11.068;2023-02-28T08:33:22;1.50;99.90
29917;DHT22;16786;49.466;11.068;2023-02-28T08:35:55;1.60;99.90
29917;DHT22;16786;49.466;11.068;2023-02-28T08:38:23;1.70;99.90
29917;DHT22;16786;49.466;11.068;2023-02-28T08:40:58;1.70;99.90
29917;DHT22;16786;49.466;11.068;2023-02-28T08:43:26;1.70;99.90
29917;DHT22;16786;49.466;11.068;2023-02-28T08:45:54;1.80;99.90
29917;DHT22;16786;49.466;11.068;2023-02-28T08:48:25;1.90;99.90
29917;DHT22;16786;49.466;11.068;2023-02-28T08:51:08;2.00;99.90
29917;DHT22;16786;49.466;11.068;2023-02-28T08:53:37;2.00;99.90
29917;DHT22;16786;49.466;11.068;2023-02-28T08:56:12;1.90;99.90
29917;DHT22;16786;49.466;11.068;2023-02-28T08:58:40;2.10;99.90
29917;DHT22;16786;49.466;11.068;2023-02-28T09:01:28;2.20;99.90
29917;DHT22;16786;49.466;11.068;2023-02-28T09:03:57;2.20;99.90
29917;DHT22;16786;49.466;11.068;2023-02-28T09:06:26;2.40;99.90
29917;DHT22;16786;49.466;11.068;2023-02-28T09:08:58;2.50;99.90
29917;DHT22;16786;49.466;11.068;2023-02-28T09:11:26;2.50;99.90
29917;DHT22;16786;49.466;11.068;2023-02-28T09:13:54;2.60;99.90
29917;DHT22;16786;49.466;11.068;2023-02-28T09:16:22;2.70;99.90
29917;DHT22;16786;49.466;11.068;2023-02-28T09:18:50;2.70;99.90
29917;DHT22;16786;49.466;11.068;2023-02-28T09:21:18;2.70;99.90
29917;DHT22;16786;49.466;11.068;2023-02-28T09:23:48;2.80;99.90
29917;DHT22;16786;49.466;11.068;2023-02-28T09:26:25;2.90;99.90
29917;DHT22;16786;49.466;11.068;2023-02-28T09:28:52;3.00;99.90
29917;DHT22;16786;49.466;11.068;2023-02-28T09:31:23;3.00;99.90
29917;DHT22;16786;49.466;11.068;2023-02-28T09:33:52;3.10;99.90
29917;DHT22;16786;49.466;11.068;2023-02-28T09:36:20;3.20;99.90
29917;DHT22;16786;49.466;11.068;2023-02-28T09:38:50;3.30;99.90
29917;DHT22;16786;49.466;11.068;2023-02-28T09:41:23;3.40;99.90
29917;DHT22;16786;49.466;11.068;2023-02-28T09:43:55;3.60;99.90
29917;DHT22;16786;49.466;11.068;2023-02-28T09:46:37;3.70;99.90
29917;DHT22;16786;49.466;11.068;2023-02-28T09:49:20;3.60;99.90
29917;DHT22;16786;49.466;11.068;2023-02-28T09:52:07;3.70;99.90
29917;DHT22;16786;49.466;11.068;2023-02-28T09:54:36;3.70;99.90
29917;DHT22;16786;49.466;11.068;2023-02-28T10:00:17;3.80;99.90
29917;DHT22;16786;49.466;11.068;2023-02-28T10:06:01;4.00;99.90
29917;DHT22;16786;49.466;11.068;2023-02-28T10:11:02;4.30;99.90
29917;DHT22;16786;49.466;11.068;2023-02-28T10:16:48;4.60;99.90
29917;DHT22;16786;49.466;11.068;2023-02-28T10:22:17;5.20;99.90
29917;DHT22;16786;49.466;11.068;2023-02-28T10:24:48;5.50;99.90
29917;DHT22;16786;49.466;11.068;2023-02-28T10:27:21;5.80;99.90
29917;DHT22;16786;49.466;11.068;2023-02-28T10:29:57;5.90;99.90
29917;DHT22;16786;49.466;11.068;2023-02-28T10:32:34;6.20;99.90
29917;DHT22;16786;49.466;11.068;2023-02-28T10:35:21;6.50;99.90
29917;DHT22;16786;49.466;11.068;2023-02-28T10:37:55;6.70;99.90
29917;DHT22;16786;49.466;11.068;2023-02-28T10:43:05;6.90;99.90
29917;DHT22;16786;49.466;11.068;2023-02-28T10:45:34;6.90;99.90
29917;DHT22;16786;49.466;11.068;2023-02-28T10:48:05;7.10;99.90
29917;DHT22;16786;49.466;11.068;2023-02-28T10:50:44;7.20;99.90
29917;DHT22;16786;49.466;11.068;2023-02-28T10:55:43;7.40;99.90
29917;DHT22;16786;49.466;11.068;2023-02-28T10:58:24;7.30;99.90
29917;DHT22;16786;49.466;11.068;2023-02-28T11:00:52;7.20;99.90
29917;DHT22;16786;49.466;11.068;2023-02-28T11:06:03;7.80;99.90
29917;DHT22;16786;49.466;11.068;2023-02-28T11:08:31;7.60;99.90
29917;DHT22;16786;49.466;11.068;2023-02-28T11:11:02;7.80;99.90
29917;DHT22;16786;49.466;11.068;2023-02-28T11:13:35;8.10;99.90
29917;DHT22;16786;49.466;11.068;2023-02-28T11:16:07;7.70;99.90
29917;DHT22;16786;49.466;11.068;2023-02-28T11:18:55;8.20;99.90
29917;DHT22;16786;49.466;11.068;2023-02-28T11:21:34;8.00;99.90
29917;DHT22;16786;49.466;11.068;2023-02-28T11:24:16;8.10;99.90
29917;DHT22;16786;49.466;11.068;2023-02-28T11:26:47;8.20;99.90
29917;DHT22;16786;49.466;11.068;2023-02-28T11:29:23;8.60;99.90
29917;DHT22;16786;49.466;11.068;2023-02-28T11:34:36;8.80;99.90
29917;DHT22;16786;49.466;11.068;2023-02-28T11:37:11;9.20;99.90
29917;DHT22;16786;49.466;11.068;2023-02-28T11:39:38;9.40;99.90
29917;DHT22;16786;49.466;11.068;2023-02-28T11:42:31;9.60;99.60
29917;DHT22;16786;49.466;11.068;2023-02-28T11:45:22;9.80;99.20
29917;DHT22;16786;49.466;11.068;2023-02-28T12:07:59;11.30;94.90
29917;DHT22;16786;49.466;11.068;2023-02-28T12:10:37;11.60;94.70
29917;DHT22;16786;49.466;11.068;2023-02-28T12:13:45;11.90;93.70
29917;DHT22;16786;49.466;11.068;2023-02-28T12:16:23;12.00;93.80
29917;DHT22;16786;49.466;11.068;2023-02-28T12:22:06;12.60;92.30
29917;DHT22;16786;49.466;11.068;2023-02-28T12:27:41;12.30;91.20
29917;DHT22;16786;49.466;11.068;2023-02-28T12:30:24;12.60;90.30
29917;DHT22;16786;49.466;11.068;2023-02-28T12:33:09;12.80;90.10
29917;DHT22;16786;49.466;11.068;2023-02-28T12:35:57;12.90;90.00
29917;DHT22;16786;49.466;11.068;2023-02-28T12:38:29;12.90;89.80
29917;DHT22;16786;49.466;11.068;2023-02-28T12:41:15;12.80;88.40
29917;DHT22;16786;49.466;11.068;2023-02-28T12:43:57;13.30;88.30
29917;DHT22;16786;49.466;11.068;2023-02-28T12:46:33;13.50;85.00
29917;DHT22;16786;49.466;11.068;2023-02-28T12:49:06;13.90;84.20
29917;DHT22;16786;49.466;11.068;2023-02-28T12:51:35;14.50;83.70
29917;DHT22;16786;49.466;11.068;2023-02-28T12:59:39;16.30;76.90
29917;DHT22;16786;49.466;11.068;2023-02-28T13:10:46;18.60;65.40
29917;DHT22;16786;49.466;11.068;2023-02-28T13:13:22;19.60;64.00
29917;DHT22;16786;49.466;11.068;2023-02-28T13:18:51;20.70;60.70
29917;DHT22;16786;49.466;11.068;2023-02-28T13:21:26;20.80;58.70
29917;DHT22;16786;49.466;11.068;2023-02-28T13:24:00;20.60;57.80
29917;DHT22;16786;49.466;11.068;2023-02-28T13:31:31;20.40;57.50
29917;DHT22;16786;49.466;11.068;2023-02-28T13:34:04;20.20;57.50
29917;DHT22;16786;49.466;11.068;2023-02-28T13:36:33;21.00;56.40
29917;DHT22;16786;49.466;11.068;2023-02-28T13:39:02;20.30;56.80
29917;DHT22;16786;49.466;11.068;2023-02-28T13:41:41;21.40;56.00
29917;DHT22;16786;49.466;11.068;2023-02-28T13:44:16;22.00;54.20
29917;DHT22;16786;49.466;11.068;2023-02-28T13:49:26;22.70;53.00
29917;DHT22;16786;49.466;11.068;2023-02-28T14:00:51;22.80;52.70
29917;DHT22;16786;49.466;11.068;2023-02-28T14:03:52;22.30;52.10
29917;DHT22;16786;49.466;11.068;2023-02-28T14:06:30;22.80;51.90
29917;DHT22;16786;49.466;11.068;2023-02-28T14:11:39;21.70;52.20
29917;DHT22;16786;49.466;11.068;2023-02-28T14:14:08;21.70;51.40
29917;DHT22;16786;49.466;11.068;2023-02-28T14:16:47;21.30;52.00
29917;DHT22;16786;49.466;11.068;2023-02-28T14:19:21;21.40;52.80
29917;DHT22;16786;49.466;11.068;2023-02-28T14:38:04;21.00;51.80
29917;DHT22;16786;49.466;11.068;2023-02-28T14:40:34;21.60;51.60
29917;DHT22;16786;49.466;11.068;2023-02-28T14:43:04;22.10;51.70
29917;DHT22;16786;49.466;11.068;2023-02-28T14:45:34;22.20;51.00
29917;DHT22;16786;49.466;11.068;2023-02-28T14:48:04;22.50;50.90
29917;DHT22;16786;49.466;11.068;2023-02-28T14:50:37;22.70;50.50
29917;DHT22;16786;49.466;11.068;2023-02-28T14:53:09;22.30;50.70
29917;DHT22;16786;49.466;11.068;2023-02-28T14:55:45;22.70;50.70
29917;DHT22;16786;49.466;11.068;2023-02-28T14:58:23;22.10;51.10
29917;DHT22;16786;49.466;11.068;2023-02-28T15:00:52;23.60;50.10
29917;DHT22;16786;49.466;11.068;2023-02-28T15:06:12;22.80;49.00
29917;DHT22;16786;49.466;11.068;2023-02-28T15:08:39;22.60;49.70
29917;DHT22;16786;49.466;11.068;2023-02-28T15:11:18;22.80;49.20
29917;DHT22;16786;49.466;11.068;2023-02-28T15:13:48;23.30;49.00
29917;DHT22;16786;49.466;11.068;2023-02-28T15:18:56;22.60;49.40
29917;DHT22;16786;49.466;11.068;2023-02-28T15:21:30;22.70;49.70
29917;DHT22;16786;49.466;11.068;2023-02-28T15:24:08;22.40;50.50
29917;DHT22;16786;49.466;11.068;2023-02-28T15:26:42;22.60;49.80
29917;DHT22;16786;49.466;11.068;2023-02-28T15:29:17;21.00;51.00
29917;DHT22;16786;49.466;11.068;2023-02-28T15:32:16;21.20;51.40
29917;DHT22;16786;49.466;11.068;2023-02-28T15:34:38;21.80;50.70
29917;DHT22;16786;49.466;11.068;2023-02-28T15:37:45;21.50;50.90
29917;DHT22;16786;49.466;11.068;2023-02-28T15:40:37;21.60;50.60
29917;DHT22;16786;49.466;11.068;2023-02-28T15:43:17;21.70;51.00
29917;DHT22;16786;49.466;11.068;2023-02-28T15:48:22;20.50;51.80
29917;DHT22;16786;49.466;11.068;2023-02-28T15:50:54;21.70;51.10
29917;DHT22;16786;49.466;11.068;2023-02-28T15:53:25;20.10;51.90
29917;DHT22;16786;49.466;11.068;2023-02-28T15:56:05;19.80;52.80
29917;DHT22;16786;49.466;11.068;2023-02-28T15:58:35;20.40;52.30
29917;DHT22;16786;49.466;11.068;2023-02-28T16:01:07;19.80;52.30
29917;DHT22;16786;49.466;11.068;2023-02-28T16:03:44;19.90;52.50
29917;DHT22;16786;49.466;11.068;2023-02-28T16:09:06;16.90;55.40
29917;DHT22;16786;49.466;11.068;2023-02-28T16:11:38;15.60;57.40
29917;DHT22;16786;49.466;11.068;2023-02-28T16:14:20;14.80;58.70
29917;DHT22;16786;49.466;11.068;2023-02-28T16:16:52;14.20;59.60
29917;DHT22;16786;49.466;11.068;2023-02-28T16:19:21;13.20;61.40
29917;DHT22;16786;49.466;11.068;2023-02-28T16:21:49;12.20;63.20
29917;DHT22;16786;49.466;11.068;2023-02-28T16:24:16;11.10;65.10
29917;DHT22;16786;49.466;11.068;2023-02-28T16:26:48;10.00;67.60
29917;DHT22;16786;49.466;11.068;2023-02-28T16:29:36;9.30;69.40
29917;DHT22;16786;49.466;11.068;2023-02-28T16:32:05;8.60;71.30
29917;DHT22;16786;49.466;11.068;2023-02-28T16:34:33;8.40;72.50
29917;DHT22;16786;49.466;11.068;2023-02-28T16:37:01;8.10;73.80
29917;DHT22;16786;49.466;11.068;2023-02-28T16:39:28;7.90;74.60
29917;DHT22;16786;49.466;11.068;2023-02-28T16:41:55;7.80;75.10
29917;DHT22;16786;49.466;11.068;2023-02-28T16:44:29;7.60;76.00
29917;DHT22;16786;49.466;11.068;2023-02-28T16:46:59;7.30;77.00
29917;DHT22;16786;49.466;11.068;2023-02-28T16:49:27;7.00;78.30
29917;DHT22;16786;49.466;11.068;2023-02-28T16:51:54;6.50;79.90
29917;DHT22;16786;49.466;11.068;2023-02-28T16:54:21;6.10;82.00
29917;DHT22;16786;49.466;11.068;2023-02-28T16:56:49;5.70;83.70
29917;DHT22;16786;49.466;11.068;2023-02-28T16:59:21;5.40;85.80
29917;DHT22;16786;49.466;11.068;2023-02-28T17:01:50;5.00;88.90
29917;DHT22;16786;49.466;11.068;2023-02-28T17:04:17;4.70;91.00
29917;DHT22;16786;49.466;11.068;2023-02-28T17:06:45;4.40;92.50
29917;DHT22;16786;49.466;11.068;2023-02-28T17:09:18;4.20;94.10
29917;DHT22;16786;49.466;11.068;2023-02-28T17:11:48;4.00;95.70
29917;DHT22;16786;49.466;11.068;2023-02-28T17:14:16;3.90;97.20
29917;DHT22;16786;49.466;11.068;2023-02-28T17:16:43;3.70;99.30
29917;DHT22;16786;49.466;11.068;2023-02-28T17:19:15;3.50;99.90
29917;DHT22;16786;49.466;11.068;2023-02-28T17:21:44;3.40;99.90
29917;DHT22;16786;49.466;11.068;2023-02-28T17:24:11;3.20;99.90
29917;DHT22;16786;49.466;11.068;2023-02-28T17:26:56;3.20;99.90
29917;DHT22;16786;49.466;11.068;2023-02-28T17:29:23;3.10;99.90
29917;DHT22;16786;49.466;11.068;2023-02-28T17:31:51;2.90;99.90
29917;DHT22;16786;49.466;11.068;2023-02-28T17:34:19;2.80;99.90
29917;DHT22;16786;49.466;11.068;2023-02-28T17:36:49;2.80;99.90
29917;DHT22;16786;49.466;11.068;2023-02-28T17:39:17;2.70;99.90
29917;DHT22;16786;49.466;11.068;2023-02-28T17:41:52;2.60;99.90
29917;DHT22;16786;49.466;11.068;2023-02-28T17:44:21;2.60;99.90
29917;DHT22;16786;49.466;11.068;2023-02-28T17:46:49;2.40;99.90
29917;DHT22;16786;49.466;11.068;2023-02-28T17:49:17;2.30;99.90
29917;DHT22;16786;49.466;11.068;2023-02-28T17:51:45;2.20;99.90
29917;DHT22;16786;49.466;11.068;2023-02-28T17:54:13;2.20;99.90
29917;DHT22;16786;49.466;11.068;2023-02-28T17:56:41;2.20;99.90
29917;DHT22;16786;49.466;11.068;2023-02-28T17:59:10;2.20;99.90
29917;DHT22;16786;49.466;11.068;2023-02-28T18:01:38;2.10;99.90
29917;DHT22;16786;49.466;11.068;2023-02-28T18:04:06;2.10;99.90
29917;DHT22;16786;49.466;11.068;2023-02-28T18:06:39;2.00;99.90
29917;DHT22;16786;49.466;11.068;2023-02-28T18:09:17;1.90;99.90
29917;DHT22;16786;49.466;11.068;2023-02-28T18:11:44;1.80;99.90
29917;DHT22;16786;49.466;11.068;2023-02-28T18:14:12;1.70;99.90